createdAt,value
2018-05-11T00:02:52.135Z,27.53
2018-05-11T00:05:54.623Z,33.30
2018-05-11T00:08:57.115Z,29.00
2018-05-11T00:11:59.572Z,30.03
2018-05-11T00:15:02.216Z,31.37
2018-05-11T00:18:04.675Z,29.43
2018-05-11T00:21:07.237Z,29.70
2018-05-11T00:24:09.833Z,31.10
2018-05-11T00:27:12.305Z,29.87
2018-05-11T00:30:14.755Z,27.77
2018-05-11T00:33:17.284Z,30.70
2018-05-11T00:36:19.741Z,37.70
2018-05-11T00:39:22.302Z,30.80
2018-05-11T00:42:24.762Z,25.90
2018-05-11T00:45:27.252Z,28.13
2018-05-11T00:48:29.786Z,28.20
2018-05-11T00:51:32.248Z,29.93
2018-05-11T00:54:34.815Z,27.20
2018-05-11T00:57:37.273Z,24.27
2018-05-11T01:00:39.738Z,28.20
2018-05-11T01:03:42.239Z,31.30
2018-05-11T01:06:44.717Z,26.93
2018-05-11T01:09:47.226Z,24.00
2018-05-11T01:12:49.779Z,27.13
2018-05-11T01:15:52.257Z,31.43
2018-05-11T01:18:54.807Z,26.93
2018-05-11T01:21:57.369Z,27.30
2018-05-11T01:24:59.847Z,30.63
2018-05-11T01:28:02.399Z,31.57
2018-05-11T01:31:04.929Z,24.87
2018-05-11T01:34:07.415Z,28.80
2018-05-11T01:37:09.908Z,28.80
2018-05-11T01:40:12.437Z,31.30
2018-05-11T01:43:14.902Z,26.73
2018-05-11T01:46:17.462Z,31.03
2018-05-11T01:49:20.026Z,27.57
2018-05-11T01:52:22.589Z,33.40
2018-05-11T01:55:25.133Z,35.77
2018-05-11T01:58:27.635Z,33.90
2018-05-11T02:01:30.083Z,34.13
2018-05-11T02:04:32.537Z,36.00
2018-05-11T02:07:34.992Z,29.67
2018-05-11T02:10:37.473Z,34.93
2018-05-11T02:13:39.920Z,33.20
2018-05-11T02:16:42.469Z,36.57
2018-05-11T02:19:44.890Z,31.80
2018-05-11T02:22:47.499Z,35.23
2018-05-11T02:25:50.055Z,32.57
2018-05-11T02:28:52.495Z,31.03
2018-05-11T02:31:54.972Z,33.57
2018-05-11T02:34:57.441Z,36.33
2018-05-11T02:37:59.902Z,35.57
2018-05-11T02:41:02.468Z,33.27
2018-05-11T02:44:05.029Z,34.63
2018-05-11T02:47:07.532Z,36.20
2018-05-11T02:50:09.984Z,29.23
2018-05-11T02:53:12.496Z,27.93
2018-05-11T02:56:14.944Z,34.37
2018-05-11T02:59:17.438Z,34.63
2018-05-11T03:02:19.947Z,36.87
2018-05-11T03:05:22.406Z,37.47
2018-05-11T03:08:24.896Z,33.97
2018-05-11T03:11:27.379Z,32.97
2018-05-11T03:14:29.862Z,31.60
2018-05-11T03:17:32.402Z,30.43
2018-05-11T03:20:34.905Z,31.93
2018-05-11T03:23:37.430Z,34.87
2018-05-11T03:26:39.917Z,36.90
2018-05-11T03:29:42.397Z,32.30
2018-05-11T03:32:44.968Z,31.17
2018-05-11T03:35:47.480Z,35.33
2018-05-11T03:38:49.956Z,36.70
2018-05-11T03:41:52.490Z,32.83
2018-05-11T03:44:54.941Z,32.23
2018-05-11T03:47:57.419Z,33.00
2018-05-11T03:51:00.047Z,31.53
2018-05-11T03:54:02.435Z,30.03
2018-05-11T03:57:04.998Z,30.97
2018-05-11T04:00:07.437Z,28.37
2018-05-11T04:03:21.716Z,35.43
2018-05-11T04:06:35.956Z,38.90
2018-05-11T04:09:39.331Z,36.90
2018-05-11T04:12:41.794Z,31.17
2018-05-11T04:15:44.246Z,36.70
2018-05-11T04:18:46.701Z,33.57
2018-05-11T04:21:49.179Z,39.50
2018-05-11T04:24:51.676Z,33.27
2018-05-11T04:27:54.091Z,36.53
2018-05-11T04:30:56.584Z,34.77
2018-05-11T04:33:59.025Z,34.40
2018-05-11T04:37:01.502Z,44.13
2018-05-11T04:40:03.958Z,37.00
2018-05-11T04:43:06.474Z,36.33
2018-05-11T04:46:08.914Z,36.53
2018-05-11T04:49:11.400Z,44.30
2018-05-11T04:52:13.901Z,40.17
2018-05-11T04:55:16.363Z,36.83
2018-05-11T04:58:18.974Z,36.00
2018-05-11T05:01:21.510Z,41.17
2018-05-11T05:04:23.995Z,39.27
2018-05-11T05:07:26.436Z,41.20
2018-05-11T05:10:28.902Z,39.83
2018-05-11T05:13:31.376Z,35.10
2018-05-11T05:16:33.817Z,34.23
2018-05-11T05:19:36.313Z,39.93
2018-05-11T05:22:38.758Z,46.23
2018-05-11T05:25:41.274Z,40.63
2018-05-11T05:28:43.730Z,35.17
2018-05-11T05:31:46.304Z,40.07
2018-05-11T05:34:48.794Z,38.40
2018-05-11T05:37:51.294Z,46.20
2018-05-11T05:40:53.831Z,39.33
2018-05-11T05:43:56.389Z,40.73
2018-05-11T05:46:58.862Z,32.53
2018-05-11T05:50:01.387Z,42.70
2018-05-11T05:53:03.962Z,37.63
2018-05-11T05:56:06.440Z,35.80
2018-05-11T05:59:08.931Z,37.23
2018-05-11T06:02:11.451Z,37.63
2018-05-11T06:05:13.925Z,32.10
2018-05-11T06:08:16.660Z,33.07
2018-05-11T06:11:19.031Z,31.43
2018-05-11T06:14:21.564Z,27.27
2018-05-11T06:17:24.097Z,28.60
2018-05-11T06:20:26.584Z,29.70
2018-05-11T06:23:29.056Z,26.80
2018-05-11T06:26:31.520Z,23.30
2018-05-11T06:29:34.022Z,22.83
2018-05-11T06:32:36.530Z,21.40
2018-05-11T06:35:38.980Z,28.53
2018-05-11T06:38:41.462Z,20.53
2018-05-11T06:41:43.910Z,22.97
2018-05-11T06:44:46.526Z,20.70
2018-05-11T06:47:48.986Z,25.23
2018-05-11T06:50:51.481Z,19.30
2018-05-11T06:53:53.976Z,17.70
2018-05-11T06:56:56.420Z,19.20
2018-05-11T06:59:59.003Z,22.57
2018-05-11T07:03:01.456Z,18.83
2018-05-11T07:06:03.949Z,19.43
2018-05-11T07:09:06.449Z,13.93
2018-05-11T07:12:08.997Z,14.17
2018-05-11T07:15:11.545Z,15.63
2018-05-11T07:18:14.106Z,16.07
2018-05-11T07:21:16.568Z,15.27
2018-05-11T07:24:19.046Z,13.67
2018-05-11T07:27:21.522Z,14.43
2018-05-11T07:30:24.048Z,15.23
2018-05-11T07:33:26.609Z,14.60
2018-05-11T07:36:29.075Z,15.27
2018-05-11T07:39:31.574Z,15.50
2018-05-11T07:42:34.034Z,13.50
2018-05-11T07:45:36.650Z,13.17
2018-05-11T07:48:39.116Z,13.03
2018-05-11T07:51:41.654Z,13.43
2018-05-11T07:54:44.111Z,11.17
2018-05-11T07:57:46.720Z,6.60
2018-05-11T08:00:49.201Z,7.50
2018-05-11T08:03:51.749Z,7.43
2018-05-11T08:06:54.205Z,8.80
2018-05-11T08:09:56.750Z,8.57
2018-05-11T08:12:59.231Z,13.07
2018-05-11T08:16:01.793Z,11.00
2018-05-11T08:19:04.440Z,11.03
2018-05-11T08:22:06.919Z,12.03
2018-05-11T08:25:09.418Z,9.50
2018-05-11T08:28:11.916Z,8.80
2018-05-11T08:31:14.382Z,10.33
2018-05-11T08:34:17.017Z,12.43
2018-05-11T08:37:19.541Z,13.73
2018-05-11T08:40:22.034Z,12.50
2018-05-11T08:43:24.511Z,14.37
2018-05-11T08:46:26.981Z,15.03
2018-05-11T08:49:29.458Z,10.00
2018-05-11T08:52:31.924Z,9.80
2018-05-11T08:55:34.431Z,11.33
2018-05-11T08:58:36.906Z,10.73
2018-05-11T09:01:39.483Z,10.40
2018-05-11T09:04:42.063Z,12.93
2018-05-11T09:07:44.642Z,9.60
2018-05-11T09:10:47.153Z,11.10
2018-05-11T09:13:49.645Z,13.17
2018-05-11T09:16:52.207Z,13.70
2018-05-11T09:19:54.783Z,10.37
2018-05-11T09:22:57.305Z,13.43
2018-05-11T09:25:59.809Z,10.40
2018-05-11T09:29:02.314Z,13.30
2018-05-11T09:32:04.830Z,10.57
2018-05-11T09:35:07.279Z,13.27
2018-05-11T09:38:09.800Z,17.43
2018-05-11T09:41:12.244Z,11.97
2018-05-11T09:44:14.743Z,20.07
2018-05-11T09:47:18.023Z,11.97
2018-05-11T09:50:20.509Z,13.80
2018-05-11T09:53:23.064Z,15.33
2018-05-11T09:56:25.560Z,11.90
2018-05-11T09:59:28.153Z,14.00
2018-05-11T10:02:30.567Z,16.53
2018-05-11T10:05:33.124Z,16.73
2018-05-11T10:08:35.680Z,17.10
2018-05-11T10:11:38.238Z,18.20
2018-05-11T10:14:40.803Z,17.67
2018-05-11T10:17:43.307Z,21.90
2018-05-11T10:20:45.897Z,23.03
2018-05-11T10:23:48.309Z,25.33
2018-05-11T10:26:50.855Z,24.50
2018-05-11T10:29:53.509Z,24.03
2018-05-11T10:32:56.007Z,27.83
2018-05-11T10:35:58.536Z,24.17
2018-05-11T10:39:00.987Z,21.20
2018-05-11T10:42:03.482Z,23.33
2018-05-11T10:45:05.974Z,21.80
2018-05-11T10:48:08.579Z,26.63
2018-05-11T10:51:11.063Z,22.30
2018-05-11T10:54:13.648Z,20.63
2018-05-11T10:57:16.170Z,25.00
2018-05-11T11:00:18.644Z,22.30
2018-05-11T11:03:21.135Z,20.63
2018-05-11T11:06:23.623Z,19.17
2018-05-11T11:09:26.088Z,21.83
2018-05-11T11:12:28.576Z,20.17
2018-05-11T11:15:31.079Z,22.80
2018-05-11T11:18:33.583Z,18.30
2018-05-11T11:21:36.160Z,21.10
2018-05-11T11:24:38.726Z,22.80
2018-05-11T11:27:41.182Z,21.90
2018-05-11T11:30:43.687Z,17.73
2018-05-11T11:33:46.205Z,18.07
2018-05-11T11:36:48.734Z,17.03
2018-05-11T11:39:51.260Z,19.47
2018-05-11T11:42:53.734Z,17.73
2018-05-11T11:45:56.269Z,18.20
2018-05-11T11:48:58.749Z,24.23
2018-05-11T11:52:01.279Z,18.53
2018-05-11T11:55:03.841Z,24.23
2018-05-11T11:58:06.366Z,16.33
2018-05-11T12:01:08.984Z,22.20
2018-05-11T12:04:11.528Z,15.73
2018-05-11T12:07:14.020Z,18.33
2018-05-11T12:10:16.885Z,19.50
2018-05-11T12:13:19.528Z,21.53
2018-05-11T12:16:22.089Z,19.50
2018-05-11T12:19:24.608Z,16.27
2018-05-11T12:22:27.090Z,14.83
2018-05-11T12:25:29.674Z,15.60
2018-05-11T12:28:32.219Z,16.80
2018-05-11T12:31:34.737Z,17.73
2018-05-11T12:34:37.220Z,15.30
2018-05-11T12:37:39.738Z,14.07
2018-05-11T12:40:42.226Z,17.00
2018-05-11T12:43:44.705Z,20.73
2018-05-11T12:46:47.305Z,17.17
2018-05-11T12:49:49.869Z,19.13
2018-05-11T12:52:52.456Z,20.13
2018-05-11T12:55:54.898Z,18.50
2018-05-11T12:58:57.349Z,18.13
2018-05-11T13:01:59.861Z,21.33
2018-05-11T13:05:02.403Z,18.43
2018-05-11T13:08:04.899Z,16.70
2018-05-11T13:11:07.454Z,16.57
2018-05-11T13:14:10.061Z,19.20
2018-05-11T13:17:12.630Z,19.60
2018-05-11T13:20:15.125Z,19.03
2018-05-11T13:23:17.638Z,16.80
2018-05-11T13:26:20.211Z,18.33
2018-05-11T13:29:22.682Z,16.90
2018-05-11T13:32:25.175Z,18.87
2018-05-11T13:35:27.652Z,16.13
2018-05-11T13:38:30.265Z,16.50
2018-05-11T13:41:32.706Z,17.10
2018-05-11T13:44:35.287Z,15.90
2018-05-11T13:47:37.938Z,17.13
2018-05-11T13:50:40.464Z,19.67
2018-05-11T13:53:43.077Z,17.73
2018-05-11T13:56:45.523Z,18.40
2018-05-11T13:59:48.018Z,17.23
2018-05-11T14:02:50.429Z,15.53
2018-05-11T14:05:53.019Z,17.93
2018-05-11T14:08:55.515Z,16.77
2018-05-11T14:11:58.008Z,15.63
2018-05-11T14:15:00.512Z,17.87
2018-05-11T14:18:03.000Z,16.67
2018-05-11T14:21:05.475Z,18.07
2018-05-11T14:24:08.090Z,18.53
2018-05-11T14:27:10.741Z,13.37
2018-05-11T14:30:13.293Z,13.90
2018-05-11T14:33:15.866Z,16.03
2018-05-11T14:36:18.445Z,12.13
2018-05-11T14:39:21.094Z,12.70
2018-05-11T14:42:23.499Z,11.73
2018-05-11T14:45:26.008Z,12.40
2018-05-11T14:48:28.496Z,15.73
2018-05-11T14:51:30.986Z,13.93
2018-05-11T14:54:33.469Z,17.27
2018-05-11T14:57:35.976Z,16.43
2018-05-11T15:00:38.482Z,16.83
2018-05-11T15:03:40.971Z,13.80
2018-05-11T15:06:43.457Z,12.77
2018-05-11T15:09:46.017Z,18.73
2018-05-11T15:12:48.589Z,14.83
2018-05-11T15:15:51.092Z,16.13
2018-05-11T15:18:53.569Z,17.07
2018-05-11T15:21:56.051Z,18.53
2018-05-11T15:24:58.593Z,13.53
2018-05-11T15:28:01.121Z,14.33
2018-05-11T15:31:03.586Z,13.30
2018-05-11T15:34:06.112Z,12.10
2018-05-11T15:37:08.776Z,13.23
2018-05-11T15:40:11.340Z,16.00
2018-05-11T15:43:13.903Z,13.47
2018-05-11T15:46:16.386Z,12.77
2018-05-11T15:49:18.863Z,11.67
2018-05-11T15:52:21.396Z,12.23
2018-05-11T15:55:23.953Z,16.97
2018-05-11T15:58:26.557Z,13.80
2018-05-11T16:01:29.104Z,16.03
2018-05-11T16:04:31.643Z,10.77
2018-05-11T16:07:34.145Z,10.10
2018-05-11T16:10:36.612Z,11.50
2018-05-11T16:13:39.202Z,14.27
2018-05-11T16:16:41.801Z,11.03
2018-05-11T16:19:44.349Z,11.33
2018-05-11T16:22:46.858Z,8.83
2018-05-11T16:25:49.336Z,8.07
2018-05-11T16:28:51.827Z,9.57
2018-05-11T16:31:54.478Z,7.93
2018-05-11T16:34:56.963Z,8.60
2018-05-11T16:37:59.522Z,8.40
2018-05-11T16:41:01.992Z,6.53
2018-05-11T16:44:04.546Z,7.60
2018-05-11T16:47:07.108Z,6.70
2018-05-11T16:50:09.667Z,7.80
2018-05-11T16:53:12.071Z,8.73
2018-05-11T16:56:14.887Z,7.73
2018-05-11T16:59:17.386Z,15.47
2018-05-11T17:02:19.922Z,11.10
2018-05-11T17:05:22.487Z,11.13
2018-05-11T17:08:25.007Z,7.97
2018-05-11T17:11:27.481Z,6.80
2018-05-11T17:14:30.072Z,12.50
2018-05-11T17:17:32.632Z,14.40
2018-05-11T17:20:35.097Z,10.60
2018-05-11T17:23:37.609Z,9.50
2018-05-11T17:26:40.059Z,12.60
2018-05-11T17:29:42.682Z,9.00
2018-05-11T17:32:45.177Z,9.90
2018-05-11T17:35:47.667Z,9.07
2018-05-11T17:38:50.168Z,8.63
2018-05-11T17:41:52.664Z,8.23
2018-05-11T17:44:55.104Z,12.00
2018-05-11T17:47:57.619Z,8.50
2018-05-11T17:51:00.367Z,6.27
2018-05-11T17:54:04.213Z,7.07
2018-05-11T17:57:06.791Z,6.90
2018-05-11T18:00:09.407Z,8.80
2018-05-11T18:03:11.976Z,9.17
2018-05-11T18:06:14.423Z,7.53
2018-05-11T18:09:16.936Z,7.87
2018-05-11T18:12:19.428Z,7.83
2018-05-11T18:15:21.938Z,11.50
2018-05-11T18:18:24.505Z,10.63
2018-05-11T18:21:27.072Z,13.67
2018-05-11T18:24:29.552Z,11.97
2018-05-11T18:27:32.048Z,7.60
2018-05-11T18:30:34.541Z,10.50
2018-05-11T18:33:37.029Z,9.83
2018-05-11T18:36:39.475Z,7.93
2018-05-11T18:39:41.977Z,10.50
2018-05-11T18:42:44.597Z,9.07
2018-05-11T18:45:47.158Z,12.43
2018-05-11T18:48:49.665Z,11.67
2018-05-11T18:51:52.120Z,10.07
2018-05-11T18:54:54.611Z,10.67
2018-05-11T18:57:57.059Z,10.20
2018-05-11T19:00:59.560Z,9.57
2018-05-11T19:04:02.125Z,9.07
2018-05-11T19:07:04.634Z,9.73
2018-05-11T19:10:07.138Z,8.40
2018-05-11T19:13:09.643Z,8.67
2018-05-11T19:16:12.123Z,10.47
2018-05-11T19:19:14.664Z,8.60
2018-05-11T19:22:17.173Z,9.37
2018-05-11T19:25:19.638Z,11.80
2018-05-11T19:28:22.219Z,11.27
2018-05-11T19:31:24.758Z,9.73
2018-05-11T19:34:27.244Z,9.23
2018-05-11T19:37:29.834Z,14.60
2018-05-11T19:40:32.354Z,15.80
2018-05-11T19:43:34.842Z,13.30
2018-05-11T19:46:37.316Z,10.40
2018-05-11T19:49:39.836Z,10.23
2018-05-11T19:52:42.428Z,11.20
2018-05-11T19:55:45.086Z,11.70
2018-05-11T19:58:47.567Z,15.30
2018-05-11T20:01:50.085Z,11.97
2018-05-11T20:04:52.625Z,16.37
2018-05-11T20:07:55.109Z,16.90
2018-05-11T20:10:57.709Z,14.33
2018-05-11T20:14:00.161Z,17.00
2018-05-11T20:17:02.700Z,17.40
2018-05-11T20:20:05.234Z,20.00
2018-05-11T20:23:08.272Z,16.50
2018-05-11T20:26:10.816Z,30.47
2018-05-11T20:29:13.369Z,17.93
2018-05-11T20:32:15.860Z,16.57
2018-05-11T20:35:18.395Z,21.50
2018-05-11T20:38:20.921Z,18.57
2018-05-11T20:41:23.520Z,19.00
2018-05-11T20:44:26.187Z,22.23
2018-05-11T20:47:28.699Z,22.13
2018-05-11T20:50:31.227Z,22.30
2018-05-11T20:53:33.800Z,18.87
2018-05-11T20:56:36.281Z,27.00
2018-05-11T20:59:38.906Z,24.10
2018-05-11T21:02:41.437Z,22.93
2018-05-11T21:05:43.947Z,22.33
2018-05-11T21:08:46.416Z,20.13
2018-05-11T21:11:48.960Z,25.30
2018-05-11T21:14:51.455Z,27.33
2018-05-11T21:17:53.973Z,22.03
2018-05-11T21:20:56.482Z,20.00
2018-05-11T21:23:58.979Z,20.03
2018-05-11T21:27:01.482Z,23.60
2018-05-11T21:30:03.952Z,24.70
2018-05-11T21:33:06.470Z,18.87
2018-05-11T21:36:08.999Z,17.83
2018-05-11T21:39:11.515Z,21.83
2018-05-11T21:42:14.094Z,17.30
2018-05-11T21:45:16.599Z,22.20
2018-05-11T21:48:19.121Z,22.37
2018-05-11T21:51:21.525Z,18.43
2018-05-11T21:54:24.036Z,20.37
2018-05-11T21:57:26.541Z,24.77
2018-05-11T22:00:29.061Z,18.03
2018-05-11T22:03:31.557Z,20.07
2018-05-11T22:06:34.156Z,22.90
2018-05-11T22:09:36.830Z,23.77
2018-05-11T22:12:39.302Z,22.07
2018-05-11T22:15:41.940Z,22.97
2018-05-11T22:18:44.458Z,21.43
2018-05-11T22:21:46.955Z,27.00
2018-05-11T22:24:49.488Z,24.90
2018-05-11T22:27:51.959Z,21.53
2018-05-11T22:30:57.584Z,22.50
2018-05-11T22:34:00.131Z,25.00
2018-05-11T22:37:02.621Z,22.57
2018-05-11T22:40:06.181Z,23.00
2018-05-11T22:43:09.230Z,19.43
2018-05-11T22:46:11.675Z,20.87
2018-05-11T22:49:15.067Z,24.77
2018-05-11T22:52:17.633Z,21.03
2018-05-11T22:55:21.295Z,17.57
2018-05-11T22:58:23.731Z,23.40
2018-05-11T23:01:26.340Z,19.43
2018-05-11T23:04:29.034Z,27.17
2018-05-11T23:07:31.539Z,29.50
2018-05-11T23:10:34.047Z,22.60
2018-05-11T23:13:36.550Z,25.20
2018-05-11T23:16:38.984Z,25.93
2018-05-11T23:19:41.567Z,21.40
2018-05-11T23:22:44.025Z,22.60
2018-05-11T23:25:46.499Z,24.53
2018-05-11T23:28:49.007Z,23.43
2018-05-11T23:31:51.540Z,24.03
2018-05-11T23:34:54.927Z,21.30
2018-05-11T23:37:57.471Z,19.03
2018-05-11T23:40:59.947Z,21.33
2018-05-11T23:44:02.511Z,16.83
2018-05-11T23:47:05.075Z,20.63
2018-05-11T23:50:07.574Z,22.63
2018-05-11T23:53:10.008Z,24.17
2018-05-11T23:56:12.553Z,21.70
2018-05-11T23:59:15.036Z,20.97
